createdAt,value
2023-12-20T00:02:12.326Z,5.76
2023-12-20T00:04:39.041Z,5.70
2023-12-20T00:07:05.766Z,5.71
2023-12-20T00:09:32.528Z,5.62
2023-12-20T00:11:59.236Z,5.65
2023-12-20T00:14:25.937Z,5.61
2023-12-20T00:16:52.786Z,5.58
2023-12-20T00:19:19.573Z,5.56
2023-12-20T00:21:46.308Z,5.54
2023-12-20T00:24:12.986Z,5.47
2023-12-20T00:26:39.626Z,5.50
2023-12-20T00:29:06.225Z,5.39
2023-12-20T00:31:32.950Z,5.44
2023-12-20T00:33:59.755Z,5.43
2023-12-20T00:36:26.447Z,5.30
2023-12-20T00:38:53.149Z,5.35
2023-12-20T00:41:19.877Z,5.33
2023-12-20T00:43:46.553Z,5.31
2023-12-20T00:46:13.360Z,5.24
2023-12-20T00:48:40.143Z,5.18
2023-12-20T00:51:07.397Z,5.17
2023-12-20T00:53:33.975Z,5.20
2023-12-20T00:56:00.620Z,5.18
2023-12-20T00:58:29.160Z,5.14
2023-12-20T01:00:55.915Z,5.14
2023-12-20T01:03:22.659Z,5.08
2023-12-20T01:05:49.499Z,5.08
2023-12-20T01:08:16.228Z,5.02
2023-12-20T01:10:42.926Z,5.00
2023-12-20T01:13:10.111Z,5.01
2023-12-20T01:15:36.788Z,5.01
2023-12-20T01:18:03.777Z,4.99
2023-12-20T01:20:30.383Z,4.97
2023-12-20T01:22:56.963Z,4.93
2023-12-20T01:25:23.984Z,4.97
2023-12-20T01:27:51.273Z,4.86
2023-12-20T01:30:18.006Z,4.95
2023-12-20T01:32:44.750Z,4.79
2023-12-20T01:35:13.615Z,4.88
2023-12-20T01:37:40.307Z,4.89
2023-12-20T01:40:07.588Z,4.91
2023-12-20T01:42:34.232Z,4.91
2023-12-20T01:45:00.864Z,4.89
2023-12-20T01:47:28.354Z,4.88
2023-12-20T01:49:57.461Z,4.83
2023-12-20T01:52:24.875Z,4.85
2023-12-20T01:54:51.982Z,4.83
2023-12-20T01:57:18.780Z,4.73
2023-12-20T01:59:45.904Z,4.81
2023-12-20T02:02:13.794Z,4.79
2023-12-20T02:04:40.688Z,4.73
2023-12-20T02:07:08.639Z,4.77
2023-12-20T02:09:36.117Z,4.74
2023-12-20T02:12:02.816Z,4.75
2023-12-20T02:14:29.448Z,4.69
2023-12-20T02:16:56.390Z,4.60
2023-12-20T02:19:23.221Z,4.68
2023-12-20T02:21:50.047Z,4.61
2023-12-20T02:24:18.576Z,4.70
2023-12-20T02:26:47.175Z,4.67
2023-12-20T02:29:14.095Z,4.71
2023-12-20T02:31:40.779Z,4.71
2023-12-20T02:34:07.596Z,4.65
2023-12-20T02:36:34.263Z,4.66
2023-12-20T02:39:00.826Z,4.67
2023-12-20T02:41:27.438Z,4.69
2023-12-20T02:43:54.030Z,4.69
2023-12-20T02:46:20.892Z,4.57
2023-12-20T02:48:48.798Z,4.61
2023-12-20T02:51:15.641Z,4.65
2023-12-20T02:53:42.262Z,4.67
2023-12-20T02:56:08.924Z,4.61
2023-12-20T02:58:35.586Z,4.43
2023-12-20T03:01:02.274Z,4.57
2023-12-20T03:03:28.918Z,4.65
2023-12-20T03:05:55.549Z,4.61
2023-12-20T03:08:22.159Z,4.47
2023-12-20T03:10:49.006Z,4.58
2023-12-20T03:13:15.764Z,4.64
2023-12-20T03:15:42.519Z,4.64
2023-12-20T03:18:09.212Z,4.63
2023-12-20T03:20:36.040Z,4.63
2023-12-20T03:23:02.740Z,4.62
2023-12-20T03:25:29.394Z,4.62
2023-12-20T03:27:56.331Z,4.60
2023-12-20T03:30:22.947Z,4.61
2023-12-20T03:32:49.614Z,4.63
2023-12-20T03:35:16.310Z,4.56
2023-12-20T03:37:43.116Z,4.55
2023-12-20T03:40:10.414Z,4.61
2023-12-20T03:42:37.088Z,4.62
2023-12-20T03:45:03.796Z,4.59
2023-12-20T03:47:30.440Z,4.54
2023-12-20T03:49:57.123Z,4.58
2023-12-20T03:52:23.876Z,4.58
2023-12-20T03:54:50.672Z,4.56
2023-12-20T03:57:17.321Z,4.57
2023-12-20T03:59:43.927Z,4.58
2023-12-20T04:02:10.511Z,4.59
2023-12-20T04:04:37.204Z,4.58
2023-12-20T04:07:04.181Z,4.59
2023-12-20T04:09:30.951Z,4.60
2023-12-20T04:11:57.993Z,4.60
2023-12-20T04:14:27.730Z,4.59
2023-12-20T04:16:55.158Z,4.60
2023-12-20T04:19:21.819Z,4.59
2023-12-20T04:21:48.779Z,4.61
2023-12-20T04:24:15.402Z,4.60
2023-12-20T04:26:42.123Z,4.55
2023-12-20T04:29:08.752Z,4.51
2023-12-20T04:31:35.417Z,4.56
2023-12-20T04:34:02.164Z,4.64
2023-12-20T04:36:31.078Z,4.64
2023-12-20T04:38:57.758Z,4.57
2023-12-20T04:41:24.521Z,4.59
2023-12-20T04:43:51.220Z,4.63
2023-12-20T04:46:17.817Z,4.62
2023-12-20T04:48:44.802Z,4.63
2023-12-20T04:51:11.536Z,4.62
2023-12-20T04:53:38.342Z,4.63
2023-12-20T04:56:05.396Z,4.64
2023-12-20T04:58:32.090Z,4.62
2023-12-20T05:00:58.857Z,4.66
2023-12-20T05:03:25.677Z,4.68
2023-12-20T05:05:52.282Z,4.65
2023-12-20T05:08:18.998Z,4.62
2023-12-20T05:10:45.646Z,4.72
2023-12-20T05:13:12.419Z,4.72
2023-12-20T05:15:39.014Z,4.73
2023-12-20T05:18:06.080Z,4.74
2023-12-20T05:20:32.929Z,4.75
2023-12-20T05:22:59.555Z,4.74
2023-12-20T05:25:26.311Z,4.70
2023-12-20T05:27:53.275Z,4.77
2023-12-20T05:30:20.167Z,4.78
2023-12-20T05:32:47.085Z,4.78
2023-12-20T05:35:13.957Z,4.73
2023-12-20T05:37:40.703Z,4.79
2023-12-20T05:40:08.345Z,4.80
2023-12-20T05:42:34.983Z,4.81
2023-12-20T05:45:01.611Z,4.84
2023-12-20T05:47:28.289Z,4.82
2023-12-20T05:49:54.891Z,4.82
2023-12-20T05:52:21.621Z,4.82
2023-12-20T05:54:48.595Z,4.85
2023-12-20T05:57:15.641Z,4.84
2023-12-20T05:59:42.198Z,4.84
2023-12-20T06:02:08.837Z,4.85
2023-12-20T06:04:35.645Z,4.87
2023-12-20T06:07:02.781Z,4.89
2023-12-20T06:09:31.894Z,4.90
2023-12-20T06:11:59.098Z,4.91
2023-12-20T06:14:25.742Z,4.92
2023-12-20T06:16:52.478Z,4.93
2023-12-20T06:19:19.372Z,4.88
2023-12-20T06:21:46.263Z,4.95
2023-12-20T06:24:13.004Z,4.95
2023-12-20T06:26:40.344Z,4.97
2023-12-20T06:29:07.154Z,4.97
2023-12-20T06:31:34.490Z,4.96
2023-12-20T06:34:02.473Z,4.97
2023-12-20T06:36:29.172Z,4.99
2023-12-20T06:38:55.812Z,5.00
2023-12-20T06:41:22.560Z,4.99
2023-12-20T06:43:50.483Z,5.02
2023-12-20T06:46:18.252Z,5.02
2023-12-20T06:48:45.432Z,5.01
2023-12-20T06:51:18.784Z,4.98
2023-12-20T06:53:45.717Z,5.01
2023-12-20T06:56:19.329Z,5.05
2023-12-20T06:58:47.061Z,5.02
2023-12-20T07:01:14.789Z,4.98
2023-12-20T07:03:41.927Z,4.98
2023-12-20T07:06:08.919Z,5.06
2023-12-20T07:08:35.633Z,5.06
2023-12-20T07:11:02.258Z,5.07
2023-12-20T07:13:29.180Z,5.08
2023-12-20T07:15:55.957Z,5.06
2023-12-20T07:18:22.616Z,5.13
2023-12-20T07:20:49.260Z,5.13
2023-12-20T07:23:15.946Z,5.07
2023-12-20T07:25:42.824Z,5.08
2023-12-20T07:28:09.521Z,5.07
2023-12-20T07:30:36.205Z,5.02
2023-12-20T07:33:03.746Z,4.98
2023-12-20T07:35:30.812Z,4.98
2023-12-20T07:37:57.509Z,5.00
2023-12-20T07:40:25.118Z,4.99
2023-12-20T07:42:51.820Z,5.00
2023-12-20T07:45:18.497Z,5.05
2023-12-20T07:47:45.349Z,5.10
2023-12-20T07:50:12.597Z,5.14
2023-12-20T07:52:39.353Z,5.14
2023-12-20T07:55:06.642Z,5.03
2023-12-20T07:57:33.395Z,5.00
2023-12-20T08:00:00.328Z,4.98
2023-12-20T08:02:27.037Z,4.97
2023-12-20T08:04:53.621Z,4.95
2023-12-20T08:07:20.771Z,4.93
2023-12-20T08:09:47.793Z,4.96
2023-12-20T08:12:14.773Z,4.97
2023-12-20T08:14:41.448Z,4.94
2023-12-20T08:17:08.146Z,5.10
2023-12-20T08:19:35.050Z,5.30
2023-12-20T08:22:01.858Z,5.78
2023-12-20T08:24:28.452Z,6.17
2023-12-20T08:26:55.096Z,6.20
2023-12-20T08:29:22.281Z,6.26
2023-12-20T08:31:53.691Z,6.29
2023-12-20T08:34:20.568Z,6.91
2023-12-20T08:36:47.224Z,7.78
2023-12-20T08:39:14.051Z,8.30
2023-12-20T08:41:40.884Z,8.26
2023-12-20T08:44:07.608Z,8.60
2023-12-20T08:46:34.229Z,9.05
2023-12-20T08:49:01.779Z,8.95
2023-12-20T08:51:29.070Z,9.57
2023-12-20T08:53:55.917Z,9.68
2023-12-20T08:56:22.666Z,10.61
2023-12-20T08:58:49.556Z,10.65
2023-12-20T09:01:16.445Z,9.13
2023-12-20T09:03:43.368Z,9.01
2023-12-20T09:06:10.249Z,8.71
2023-12-20T09:08:37.007Z,8.39
2023-12-20T09:11:03.740Z,8.42
2023-12-20T09:13:32.895Z,9.08
2023-12-20T09:15:59.930Z,9.02
2023-12-20T09:18:26.902Z,10.57
2023-12-20T09:20:53.830Z,11.29
2023-12-20T09:23:20.575Z,10.68
2023-12-20T09:25:47.212Z,9.76
2023-12-20T09:28:13.956Z,10.06
2023-12-20T09:30:41.660Z,10.63
2023-12-20T09:33:09.433Z,10.60
2023-12-20T09:35:36.454Z,10.37
2023-12-20T09:38:03.501Z,11.14
2023-12-20T09:40:33.122Z,10.66
2023-12-20T09:43:05.462Z,10.42
2023-12-20T09:45:33.305Z,9.21
2023-12-20T09:48:00.619Z,8.60
2023-12-20T09:50:28.573Z,8.31
2023-12-20T09:53:00.362Z,8.48
2023-12-20T09:55:29.258Z,8.42
2023-12-20T09:57:56.193Z,8.22
2023-12-20T10:00:22.914Z,8.19
2023-12-20T10:03:00.554Z,8.07
2023-12-20T10:05:32.267Z,7.96
2023-12-20T10:08:02.166Z,7.90
2023-12-20T10:10:38.083Z,7.94
2023-12-20T10:13:13.100Z,7.84
2023-12-20T10:15:40.165Z,7.74
2023-12-20T10:18:07.765Z,7.50
2023-12-20T10:20:34.918Z,7.24
2023-12-20T10:23:02.565Z,7.15
2023-12-20T10:25:29.876Z,7.12
2023-12-20T10:28:14.747Z,7.34
2023-12-20T10:30:42.858Z,7.36
2023-12-20T10:33:11.092Z,7.41
2023-12-20T10:35:42.447Z,7.28
2023-12-20T10:38:12.492Z,7.18
2023-12-20T10:40:39.633Z,7.03
2023-12-20T10:43:07.713Z,7.34
2023-12-20T10:45:35.954Z,7.49
2023-12-20T10:48:04.509Z,7.42
2023-12-20T10:50:33.072Z,7.28
2023-12-20T10:53:01.361Z,7.23
2023-12-20T10:55:29.627Z,7.26
2023-12-20T10:58:02.979Z,7.30
2023-12-20T11:00:33.812Z,7.30
2023-12-20T11:03:04.080Z,7.22
2023-12-20T11:05:55.067Z,7.17
2023-12-20T11:08:34.347Z,7.22
2023-12-20T11:11:10.640Z,7.19
2023-12-20T11:13:45.991Z,7.22
2023-12-20T11:16:13.678Z,7.44
2023-12-20T11:18:41.976Z,7.49
2023-12-20T11:21:09.522Z,7.57
2023-12-20T11:23:36.685Z,7.69
2023-12-20T11:26:04.550Z,7.82
2023-12-20T11:28:31.649Z,7.73
2023-12-20T11:31:02.893Z,7.67
2023-12-20T11:33:38.030Z,7.61
2023-12-20T11:36:13.643Z,7.57
2023-12-20T11:38:50.175Z,7.40
2023-12-20T11:41:16.917Z,7.36
2023-12-20T11:43:43.612Z,7.38
2023-12-20T11:46:10.903Z,7.30
2023-12-20T11:48:41.601Z,7.41
2023-12-20T11:51:12.545Z,7.36
2023-12-20T11:53:40.140Z,7.32
2023-12-20T11:56:07.977Z,7.15
2023-12-20T11:58:35.421Z,7.04
2023-12-20T12:01:05.714Z,6.91
2023-12-20T12:03:32.557Z,6.96
2023-12-20T12:05:59.489Z,6.89
2023-12-20T12:08:26.361Z,6.76
2023-12-20T12:10:53.398Z,6.78
2023-12-20T12:13:20.209Z,6.77
2023-12-20T12:15:48.164Z,6.76
2023-12-20T12:18:19.241Z,6.75
2023-12-20T12:20:47.024Z,6.71
2023-12-20T12:23:13.740Z,6.73
2023-12-20T12:25:42.908Z,6.66
2023-12-20T12:28:11.556Z,6.68
2023-12-20T12:30:39.680Z,6.66
2023-12-20T12:33:13.620Z,6.68
2023-12-20T12:35:41.670Z,6.71
2023-12-20T12:38:09.960Z,6.67
2023-12-20T12:40:39.686Z,6.72
2023-12-20T12:43:07.428Z,6.81
2023-12-20T12:45:34.156Z,7.01
2023-12-20T12:48:00.890Z,7.11
2023-12-20T12:50:29.831Z,7.22
2023-12-20T12:52:56.873Z,7.19
2023-12-20T12:55:23.576Z,7.10
2023-12-20T12:57:50.371Z,7.01
2023-12-20T13:00:17.246Z,6.82
2023-12-20T13:02:44.250Z,6.85
2023-12-20T13:05:11.101Z,6.78
2023-12-20T13:07:38.968Z,6.77
2023-12-20T13:10:07.093Z,6.78
2023-12-20T13:12:33.876Z,6.76
2023-12-20T13:15:00.640Z,6.78
2023-12-20T13:17:29.468Z,6.78
2023-12-20T13:19:57.237Z,6.75
2023-12-20T13:22:24.491Z,6.67
2023-12-20T13:24:51.193Z,6.67
2023-12-20T13:27:17.840Z,6.65
2023-12-20T13:29:44.407Z,6.67
2023-12-20T13:32:11.178Z,6.58
2023-12-20T13:34:37.971Z,6.64
2023-12-20T13:37:05.812Z,6.65
2023-12-20T13:39:32.975Z,6.54
2023-12-20T13:42:01.250Z,6.61
2023-12-20T13:44:28.473Z,6.59
2023-12-20T13:46:55.246Z,6.57
2023-12-20T13:49:22.502Z,6.55
2023-12-20T13:51:49.463Z,6.47
2023-12-20T13:54:17.761Z,6.44
2023-12-20T13:56:56.073Z,6.41
2023-12-20T13:59:29.577Z,6.38
2023-12-20T14:01:58.335Z,6.35
2023-12-20T14:04:40.927Z,6.25
2023-12-20T14:07:11.510Z,6.32
2023-12-20T14:09:38.729Z,6.35
2023-12-20T14:12:06.195Z,6.33
2023-12-20T14:14:32.875Z,6.37
2023-12-20T14:16:59.468Z,6.39
2023-12-20T14:19:26.152Z,6.36
2023-12-20T14:21:53.318Z,6.34
2023-12-20T14:24:20.242Z,6.39
2023-12-20T14:26:46.796Z,6.39
2023-12-20T14:29:13.494Z,6.37
2023-12-20T14:31:41.374Z,6.32
2023-12-20T14:34:08.361Z,6.35
2023-12-20T14:36:36.201Z,6.28
2023-12-20T14:39:04.375Z,6.20
2023-12-20T14:41:32.724Z,6.23
2023-12-20T14:44:01.086Z,6.16
2023-12-20T14:46:28.323Z,6.04
2023-12-20T14:48:55.034Z,6.18
2023-12-20T14:51:21.712Z,6.07
2023-12-20T14:53:48.624Z,6.07
2023-12-20T14:56:16.069Z,6.16
2023-12-20T14:58:42.896Z,6.23
2023-12-20T15:01:10.252Z,6.27
2023-12-20T15:06:03.772Z,6.23
2023-12-20T15:08:30.560Z,6.26
2023-12-20T15:10:57.207Z,6.34
2023-12-20T15:13:23.985Z,6.34
2023-12-20T15:15:50.678Z,6.39
2023-12-20T15:18:17.305Z,6.15
2023-12-20T15:20:45.968Z,6.25
2023-12-20T15:23:12.531Z,6.22
2023-12-20T15:25:39.163Z,6.17
2023-12-20T15:28:06.164Z,6.12
2023-12-20T15:30:33.932Z,6.09
2023-12-20T15:33:02.228Z,6.08
2023-12-20T15:35:30.760Z,6.03
2023-12-20T15:37:58.213Z,6.00
2023-12-20T15:40:24.963Z,5.96
2023-12-20T15:42:51.861Z,5.89
2023-12-20T15:45:19.508Z,6.03
2023-12-20T15:47:46.636Z,6.16
2023-12-20T15:50:13.960Z,6.18
2023-12-20T15:52:40.828Z,6.22
2023-12-20T15:55:08.835Z,6.28
2023-12-20T15:57:45.287Z,6.32
2023-12-20T16:00:19.610Z,6.35
2023-12-20T16:02:46.163Z,6.36
2023-12-20T16:05:12.945Z,6.32
2023-12-20T16:07:39.840Z,6.41
2023-12-20T16:10:08.146Z,6.42
2023-12-20T16:12:34.864Z,6.37
2023-12-20T16:15:02.355Z,6.42
2023-12-20T16:17:29.567Z,6.42
2023-12-20T16:19:56.904Z,6.42
2023-12-20T16:22:24.066Z,6.39
2023-12-20T16:24:54.116Z,6.40
2023-12-20T16:27:20.912Z,6.36
2023-12-20T16:29:47.492Z,6.34
2023-12-20T16:32:14.325Z,6.29
2023-12-20T16:34:41.093Z,6.26
2023-12-20T16:37:07.863Z,6.22
2023-12-20T16:39:34.515Z,6.24
2023-12-20T16:42:01.226Z,6.26
2023-12-20T16:44:27.819Z,6.25
2023-12-20T16:46:54.593Z,6.29
2023-12-20T16:49:21.689Z,6.26
2023-12-20T16:51:48.972Z,6.27
2023-12-20T16:54:15.593Z,6.28
2023-12-20T16:56:42.375Z,6.30
2023-12-20T16:59:09.013Z,6.32
2023-12-20T17:01:36.373Z,6.32
2023-12-20T17:04:03.284Z,6.31
2023-12-20T17:06:30.276Z,6.32
2023-12-20T17:08:56.929Z,6.33
2023-12-20T17:11:23.583Z,6.33
2023-12-20T17:13:50.259Z,6.32
2023-12-20T17:16:17.052Z,6.29
2023-12-20T17:18:49.903Z,6.31
2023-12-20T17:21:18.010Z,6.24
2023-12-20T17:23:46.743Z,6.22
2023-12-20T17:26:15.977Z,6.16
2023-12-20T17:28:43.473Z,6.03
2023-12-20T17:31:10.674Z,5.96
2023-12-20T17:33:37.750Z,5.92
2023-12-20T17:36:04.782Z,5.92
2023-12-20T17:38:31.612Z,5.92
2023-12-20T17:40:58.519Z,5.88
2023-12-20T17:43:25.705Z,5.89
2023-12-20T17:45:52.433Z,5.86
2023-12-20T17:48:19.220Z,5.83
2023-12-20T17:50:45.856Z,5.81
2023-12-20T17:53:12.742Z,5.75
2023-12-20T17:55:39.569Z,5.72
2023-12-20T17:58:06.297Z,5.71
2023-12-20T18:00:35.726Z,5.72
2023-12-20T18:03:03.204Z,5.53
2023-12-20T18:05:30.490Z,5.69
2023-12-20T18:07:57.444Z,5.67
2023-12-20T18:10:24.253Z,5.65
2023-12-20T18:12:50.942Z,5.65
2023-12-20T18:15:19.455Z,5.61
2023-12-20T18:17:46.840Z,5.57
2023-12-20T18:20:16.345Z,5.56
2023-12-20T18:22:43.980Z,5.56
2023-12-20T18:25:10.823Z,5.55
2023-12-20T18:27:37.487Z,5.53
2023-12-20T18:30:15.168Z,5.37
2023-12-20T18:32:43.804Z,5.47
2023-12-20T18:35:11.180Z,5.46
2023-12-20T18:37:38.112Z,5.40
2023-12-20T18:40:05.779Z,5.46
2023-12-20T18:42:33.194Z,5.42
2023-12-20T18:45:01.056Z,5.46
2023-12-20T18:47:28.058Z,5.45
2023-12-20T18:49:54.881Z,5.45
2023-12-20T18:52:21.853Z,5.43
2023-12-20T18:54:51.364Z,5.42
2023-12-20T18:57:18.291Z,5.39
2023-12-20T18:59:44.961Z,5.38
2023-12-20T19:02:13.678Z,5.33
2023-12-20T19:04:40.609Z,5.33
2023-12-20T19:07:07.505Z,5.32
2023-12-20T19:09:34.341Z,5.26
2023-12-20T19:12:00.991Z,5.33
2023-12-20T19:14:27.625Z,5.31
2023-12-20T19:16:55.129Z,5.28
2023-12-20T19:19:22.156Z,5.23
2023-12-20T19:21:49.119Z,5.23
2023-12-20T19:24:15.745Z,5.21
2023-12-20T19:26:42.514Z,5.05
2023-12-20T19:29:09.210Z,5.13
2023-12-20T19:31:35.970Z,5.17
2023-12-20T19:34:02.763Z,5.15
2023-12-20T19:36:29.529Z,5.14
2023-12-20T19:38:56.286Z,5.18
2023-12-20T19:41:22.977Z,5.21
2023-12-20T19:43:49.714Z,5.20
2023-12-20T19:46:16.430Z,5.20
2023-12-20T19:48:44.561Z,5.20
2023-12-20T19:51:12.151Z,5.22
2023-12-20T19:53:38.900Z,5.19
2023-12-20T19:56:06.017Z,5.19
2023-12-20T19:58:33.673Z,5.16
2023-12-20T20:01:00.471Z,5.18
2023-12-20T20:03:27.267Z,5.17
2023-12-20T20:05:54.128Z,5.16
2023-12-20T20:08:20.950Z,5.17
2023-12-20T20:10:47.726Z,5.00
2023-12-20T20:13:16.410Z,4.98
2023-12-20T20:15:43.408Z,5.17
2023-12-20T20:18:13.177Z,5.16
2023-12-20T20:20:40.106Z,5.19
2023-12-20T20:23:06.797Z,5.13
2023-12-20T20:25:34.069Z,5.16
2023-12-20T20:28:01.216Z,5.25
2023-12-20T20:30:28.615Z,5.21
2023-12-20T20:32:55.486Z,5.28
2023-12-20T20:35:22.434Z,5.25
2023-12-20T20:37:50.045Z,5.26
2023-12-20T20:40:20.136Z,5.32
2023-12-20T20:42:47.234Z,5.31
2023-12-20T20:45:15.236Z,5.31
2023-12-20T20:47:43.007Z,5.23
2023-12-20T20:50:11.049Z,5.34
2023-12-20T20:52:38.428Z,5.34
2023-12-20T20:55:05.629Z,5.31
2023-12-20T20:57:32.465Z,5.41
2023-12-20T20:59:59.321Z,5.43
2023-12-20T21:02:26.382Z,5.50
2023-12-20T21:04:53.228Z,5.50
2023-12-20T21:07:22.491Z,5.45
2023-12-20T21:09:50.908Z,5.50
2023-12-20T21:12:18.091Z,5.50
2023-12-20T21:14:45.475Z,5.47
2023-12-20T21:17:15.411Z,5.36
2023-12-20T21:19:42.074Z,5.38
2023-12-20T21:22:08.974Z,5.36
2023-12-20T21:24:36.411Z,5.31
2023-12-20T21:27:03.649Z,5.45
2023-12-20T21:29:30.423Z,5.43
2023-12-20T21:31:57.246Z,5.47
2023-12-20T21:34:24.074Z,5.51
2023-12-20T21:36:51.014Z,5.62
2023-12-20T21:39:20.293Z,5.66
2023-12-20T21:41:47.041Z,5.71
2023-12-20T21:44:13.753Z,5.68
2023-12-20T21:46:41.757Z,5.66
2023-12-20T21:49:09.069Z,5.65
2023-12-20T21:51:35.959Z,5.69
2023-12-20T21:54:04.477Z,5.71
2023-12-20T21:56:31.224Z,5.70
2023-12-20T21:58:58.551Z,5.74
2023-12-20T22:01:25.563Z,5.78
2023-12-20T22:03:52.867Z,5.82
2023-12-20T22:06:19.632Z,5.81
2023-12-20T22:08:46.317Z,5.89
2023-12-20T22:11:13.114Z,5.89
2023-12-20T22:13:40.342Z,5.87
2023-12-20T22:16:08.552Z,5.89
2023-12-20T22:18:35.491Z,5.90
2023-12-20T22:21:02.398Z,5.90
2023-12-20T22:23:28.964Z,5.93
2023-12-20T22:25:55.715Z,5.94
2023-12-20T22:28:22.535Z,5.94
2023-12-20T22:30:49.251Z,5.96
2023-12-20T22:33:16.063Z,5.92
2023-12-20T22:35:44.396Z,5.98
2023-12-20T22:38:11.314Z,5.97
2023-12-20T22:40:38.179Z,6.00
2023-12-20T22:43:05.099Z,5.98
2023-12-20T22:45:33.910Z,5.97
2023-12-20T22:48:00.753Z,5.96
2023-12-20T22:50:27.573Z,5.98
2023-12-20T22:52:54.290Z,5.93
2023-12-20T22:55:21.046Z,5.86
2023-12-20T22:57:48.079Z,5.96
2023-12-20T23:00:18.531Z,5.95
2023-12-20T23:02:45.135Z,5.94
2023-12-20T23:05:11.776Z,5.92
2023-12-20T23:07:38.388Z,5.91
2023-12-20T23:10:05.763Z,5.84
2023-12-20T23:12:32.824Z,5.93
2023-12-20T23:14:59.484Z,5.91
2023-12-20T23:17:26.078Z,5.94
2023-12-20T23:19:52.779Z,5.97
2023-12-20T23:22:19.530Z,5.93
2023-12-20T23:24:47.678Z,5.99
2023-12-20T23:27:16.649Z,6.08
2023-12-20T23:29:43.324Z,6.01
2023-12-20T23:32:09.936Z,6.08
2023-12-20T23:34:36.658Z,6.08
2023-12-20T23:37:04.778Z,6.10
2023-12-20T23:39:31.480Z,6.13
2023-12-20T23:41:58.189Z,6.11
2023-12-20T23:44:24.835Z,6.20
2023-12-20T23:46:51.386Z,6.16
2023-12-20T23:49:18.061Z,6.16
2023-12-20T23:51:44.694Z,6.16
2023-12-20T23:54:11.289Z,6.10
2023-12-20T23:56:39.041Z,6.08
2023-12-20T23:59:06.073Z,6.06
